createdAt,value
2022-08-07T00:01:12.584Z,101911.63
2022-08-07T00:06:29.522Z,101909.69
2022-08-07T00:11:35.487Z,101910.22
2022-08-07T00:16:49.805Z,101905.53
2022-08-07T00:21:56.729Z,101899.03
2022-08-07T00:27:07.370Z,101895.66
2022-08-07T00:32:10.782Z,101887.97
2022-08-07T00:37:16.422Z,101882.91
2022-08-07T00:42:18.071Z,101875.50
2022-08-07T00:48:08.218Z,101880.34
2022-08-07T00:52:48.700Z,101887.94
2022-08-07T00:57:55.629Z,101884.66
2022-08-07T01:02:57.681Z,101864.34
2022-08-07T01:07:59.613Z,101860.88
2022-08-07T01:13:01.914Z,101870.38
2022-08-07T01:18:05.612Z,101857.56
2022-08-07T01:23:13.637Z,101862.41
2022-08-07T01:28:16.923Z,101854.84
2022-08-07T01:33:21.534Z,101863.63
2022-08-07T01:38:29.199Z,101849.09
2022-08-07T01:43:38.388Z,101859.59
2022-08-07T01:48:46.638Z,101851.69
2022-08-07T01:54:08.861Z,101845.78
2022-08-07T01:59:24.229Z,101860.84
2022-08-07T02:04:57.400Z,101860.00
2022-08-07T02:10:10.272Z,101855.81
2022-08-07T02:15:25.449Z,101859.59
2022-08-07T02:20:31.930Z,101861.75
2022-08-07T02:26:30.388Z,101856.47
2022-08-07T02:31:10.124Z,101855.81
2022-08-07T02:36:30.487Z,101857.94
2022-08-07T02:41:50.607Z,101854.25
2022-08-07T02:46:59.198Z,101857.59
2022-08-07T02:52:08.805Z,101848.22
2022-08-07T02:57:14.286Z,101850.63
2022-08-07T03:02:17.755Z,101853.25
2022-08-07T03:07:21.486Z,101845.22
2022-08-07T03:12:45.444Z,101843.78
2022-08-07T03:17:53.459Z,101842.47
2022-08-07T03:22:59.417Z,101849.69
2022-08-07T03:28:36.852Z,101843.75
2022-08-07T03:33:24.978Z,101848.16
2022-08-07T03:38:36.283Z,101850.63
2022-08-07T03:43:44.019Z,101844.44
2022-08-07T03:49:02.712Z,101854.63
2022-08-07T03:54:35.182Z,101850.50
2022-08-07T03:59:32.014Z,101845.25
2022-08-07T04:04:34.907Z,101843.41
2022-08-07T04:09:45.057Z,101842.63
2022-08-07T04:14:56.284Z,101850.66
2022-08-07T04:19:58.770Z,101848.69
2022-08-07T04:25:03.071Z,101845.59
2022-08-07T04:30:21.558Z,101852.13
2022-08-07T04:35:50.375Z,101854.16
2022-08-07T04:40:56.722Z,101853.34
2022-08-07T04:46:20.222Z,101855.72
2022-08-07T04:51:49.325Z,101854.25
2022-08-07T04:58:14.161Z,101864.94
2022-08-07T05:02:23.276Z,101879.06
2022-08-07T05:07:36.862Z,101883.22
2022-08-07T05:13:01.445Z,101886.31
2022-08-07T05:18:32.053Z,101889.31
2022-08-07T05:23:47.600Z,101887.38
2022-08-07T05:28:53.811Z,101899.69
2022-08-07T05:34:05.509Z,101900.78
2022-08-07T05:40:16.723Z,101892.97
2022-08-07T05:44:46.632Z,101898.75
2022-08-07T05:50:03.430Z,101898.13
2022-08-07T05:55:10.676Z,101900.84
2022-08-07T06:00:17.863Z,101907.56
2022-08-07T06:05:31.163Z,101906.28
2022-08-07T06:10:39.307Z,101909.03
2022-08-07T06:15:49.950Z,101911.09
2022-08-07T06:22:15.283Z,101922.84
2022-08-07T06:26:21.621Z,101921.41
2022-08-07T06:31:46.870Z,101927.13
2022-08-07T06:36:52.546Z,101921.81
2022-08-07T06:42:07.546Z,101916.28
2022-08-07T06:47:48.395Z,101921.13
2022-08-07T06:52:56.374Z,101922.78
2022-08-07T06:58:10.748Z,101919.13
2022-08-07T07:03:49.265Z,101908.22
2022-08-07T07:08:53.864Z,101902.25
2022-08-07T07:14:01.515Z,101902.63
2022-08-07T07:19:40.960Z,101908.22
2022-08-07T07:24:29.275Z,101907.38
2022-08-07T07:30:09.456Z,101909.16
2022-08-07T07:35:04.086Z,101905.41
2022-08-07T07:40:14.623Z,101897.41
2022-08-07T07:45:19.077Z,101897.22
2022-08-07T07:50:34.518Z,101901.13
2022-08-07T07:55:45.671Z,101885.25
2022-08-07T08:00:58.553Z,101885.81
2022-08-07T08:06:01.523Z,101884.31
2022-08-07T08:11:08.986Z,101887.00
2022-08-07T08:16:19.668Z,101879.88
2022-08-07T08:22:02.875Z,101874.81
2022-08-07T08:26:53.211Z,101873.72
2022-08-07T08:32:04.809Z,101882.91
2022-08-07T08:37:59.312Z,101865.84
2022-08-07T08:42:51.578Z,101870.09
2022-08-07T08:48:13.912Z,101852.75
2022-08-07T08:53:47.134Z,101857.72
2022-08-07T08:59:12.686Z,101847.50
2022-08-07T09:04:25.985Z,101841.03
2022-08-07T09:10:03.417Z,101842.09
2022-08-07T09:16:23.930Z,101834.53
2022-08-07T09:21:34.164Z,101835.63
2022-08-07T09:27:17.411Z,101834.84
2022-08-07T09:32:37.680Z,101826.78
2022-08-07T09:37:53.677Z,101820.28
2022-08-07T09:43:18.047Z,101811.03
2022-08-07T09:48:29.739Z,101799.63
2022-08-07T09:53:40.816Z,101799.97
2022-08-07T09:59:44.566Z,101800.06
2022-08-07T10:04:53.362Z,101785.31
2022-08-07T10:10:28.238Z,101780.94
2022-08-07T10:15:37.786Z,101773.88
2022-08-07T10:21:05.054Z,101782.38
2022-08-07T10:26:36.642Z,101772.78
2022-08-07T10:31:49.589Z,101769.41
2022-08-07T10:37:26.584Z,101760.41
2022-08-07T10:43:21.281Z,101754.94
2022-08-07T10:48:59.981Z,101748.78
2022-08-07T10:54:25.323Z,101739.63
2022-08-07T10:59:52.940Z,101745.97
2022-08-07T11:05:10.644Z,101729.00
2022-08-07T11:10:41.627Z,101726.63
2022-08-07T11:15:54.363Z,101716.59
2022-08-07T11:21:19.579Z,101709.28
2022-08-07T11:26:43.267Z,101707.09
2022-08-07T11:32:01.047Z,101694.81
2022-08-07T11:37:16.937Z,101690.91
2022-08-07T11:42:29.762Z,101692.00
2022-08-07T11:47:59.494Z,101677.84
2022-08-07T11:53:33.764Z,101682.25
2022-08-07T11:58:53.876Z,101674.31
2022-08-07T12:04:24.873Z,101670.19
2022-08-07T12:09:53.734Z,101667.59
2022-08-07T12:15:03.328Z,101666.28
2022-08-07T12:20:18.555Z,101654.94
2022-08-07T12:26:06.252Z,101657.03
2022-08-07T12:31:22.407Z,101655.06
2022-08-07T12:36:33.180Z,101642.69
2022-08-07T12:41:42.864Z,101638.91
2022-08-07T12:47:30.509Z,101637.84
2022-08-07T12:52:35.161Z,101629.88
2022-08-07T12:58:02.135Z,101633.25
2022-08-07T13:03:01.048Z,101624.50
2022-08-07T13:08:42.910Z,101611.63
2022-08-07T13:13:53.864Z,101599.19
2022-08-07T13:19:34.835Z,101599.81
2022-08-07T13:24:54.096Z,101598.47
2022-08-07T13:30:07.645Z,101587.75
2022-08-07T13:35:21.717Z,101583.53
2022-08-07T13:40:35.198Z,101583.91
2022-08-07T13:46:12.453Z,101577.84
2022-08-07T13:51:20.490Z,101569.19
2022-08-07T13:56:35.435Z,101570.19
2022-08-07T14:02:04.069Z,101561.50
2022-08-07T14:07:09.260Z,101550.22
2022-08-07T14:12:28.107Z,101538.78
2022-08-07T14:18:23.540Z,101545.19
2022-08-07T14:23:58.810Z,101545.97
2022-08-07T14:28:57.373Z,101542.31
2022-08-07T14:34:02.903Z,101537.50
2022-08-07T14:39:12.560Z,101526.53
2022-08-07T14:44:33.607Z,101526.63
2022-08-07T14:49:58.328Z,101517.59
2022-08-07T14:55:01.712Z,101521.03
2022-08-07T15:00:06.642Z,101513.66
2022-08-07T15:05:20.047Z,101510.41
2022-08-07T15:10:29.654Z,101503.88
2022-08-07T15:15:52.763Z,101496.69
2022-08-07T15:21:03.772Z,101495.03
2022-08-07T15:26:11.638Z,101495.75
2022-08-07T15:32:01.059Z,101492.84
2022-08-07T15:37:02.738Z,101492.06
2022-08-07T15:48:00.296Z,101476.56
2022-08-07T15:52:51.866Z,101480.38
2022-08-07T15:58:00.273Z,101472.94
2022-08-07T16:03:06.546Z,101473.53
2022-08-07T16:08:32.663Z,101475.00
2022-08-07T16:13:58.471Z,101462.34
2022-08-07T16:19:12.962Z,101458.50
2022-08-07T16:24:34.394Z,101451.09
2022-08-07T16:30:29.579Z,101460.31
2022-08-07T16:35:52.052Z,101457.44
2022-08-07T16:41:22.712Z,101453.00
2022-08-07T16:47:16.625Z,101452.25
2022-08-07T16:52:55.392Z,101464.94
2022-08-07T16:58:09.616Z,101473.13
2022-08-07T17:03:58.275Z,101454.47
2022-08-07T17:09:09.277Z,101458.22
2022-08-07T17:14:23.755Z,101449.88
2022-08-07T17:20:02.544Z,101457.13
2022-08-07T17:25:19.159Z,101456.28
2022-08-07T17:30:26.628Z,101459.09
2022-08-07T17:35:59.616Z,101452.69
2022-08-07T17:42:02.104Z,101457.91
2022-08-07T17:46:52.481Z,101457.84
2022-08-07T17:52:10.390Z,101460.28
2022-08-07T17:57:56.129Z,101460.19
2022-08-07T18:02:57.844Z,101455.34
2022-08-07T18:08:16.423Z,101455.25
2022-08-07T18:13:40.738Z,101457.19
2022-08-07T18:21:03.287Z,101463.00
2022-08-07T18:24:34.248Z,101466.53
2022-08-07T18:30:07.390Z,101470.56
2022-08-07T18:35:16.407Z,101488.00
2022-08-07T18:40:50.223Z,101480.72
2022-08-07T18:46:25.698Z,101495.41
2022-08-07T18:52:35.501Z,101498.28
2022-08-07T18:57:30.513Z,101512.47
2022-08-07T19:02:51.544Z,101511.84
2022-08-07T19:08:07.113Z,101506.03
2022-08-07T19:13:23.216Z,101522.00
2022-08-07T19:18:36.787Z,101526.53
2022-08-07T19:23:57.918Z,101534.09
2022-08-07T19:30:55.556Z,101543.88
2022-08-07T19:34:32.607Z,101552.97
2022-08-07T19:39:40.417Z,101558.13
2022-08-07T19:45:08.651Z,101556.84
2022-08-07T19:50:44.294Z,101558.78
2022-08-07T19:55:56.623Z,101563.41
2022-08-07T20:00:57.398Z,101570.00
2022-08-07T20:06:02.331Z,101574.03
2022-08-07T20:11:12.269Z,101566.50
2022-08-07T20:16:35.808Z,101565.00
2022-08-07T20:21:48.309Z,101574.38
2022-08-07T20:26:54.758Z,101577.88
2022-08-07T20:31:58.701Z,101578.94
2022-08-07T20:37:04.890Z,101582.03
2022-08-07T20:42:11.583Z,101587.22
2022-08-07T20:47:17.036Z,101590.97
2022-08-07T20:52:50.395Z,101588.94
2022-08-07T20:58:02.501Z,101586.06
2022-08-07T21:03:07.316Z,101585.06
2022-08-07T21:08:12.803Z,101590.69
2022-08-07T21:13:19.051Z,101593.38
2022-08-07T21:18:33.463Z,101594.97
2022-08-07T21:23:56.293Z,101595.72
2022-08-07T21:29:06.886Z,101600.00
2022-08-07T21:34:32.191Z,101608.34
2022-08-07T21:39:51.859Z,101609.75
2022-08-07T21:46:04.736Z,101617.50
2022-08-07T21:50:34.881Z,101617.16
2022-08-07T21:55:45.595Z,101617.16
2022-08-07T22:00:53.168Z,101618.63
2022-08-07T22:06:03.674Z,101627.00
2022-08-07T22:11:06.025Z,101617.03
2022-08-07T22:16:43.043Z,101625.13
2022-08-07T22:22:02.203Z,101617.47
2022-08-07T22:28:08.349Z,101612.56
2022-08-07T22:33:12.484Z,101618.19
2022-08-07T22:38:47.947Z,101622.50
2022-08-07T22:43:54.671Z,101618.88
2022-08-07T22:49:13.681Z,101615.66
2022-08-07T22:54:36.431Z,101620.81
2022-08-07T23:00:08.974Z,101626.44
2022-08-07T23:06:08.827Z,101628.41
2022-08-07T23:11:12.938Z,101626.63
2022-08-07T23:17:04.244Z,101633.66
2022-08-07T23:22:39.307Z,101631.78
2022-08-07T23:28:20.454Z,101634.28
2022-08-07T23:34:34.866Z,101639.00
2022-08-07T23:39:08.377Z,101634.53
2022-08-07T23:44:16.321Z,101630.75
2022-08-07T23:49:50.854Z,101634.25
2022-08-07T23:55:53.110Z,101637.84
